createdAt,value
2023-03-12T00:02:27.271Z,6.40
2023-03-12T00:04:55.079Z,5.83
2023-03-12T00:07:22.821Z,6.20
2023-03-12T00:09:50.574Z,6.00
2023-03-12T00:12:19.746Z,6.10
2023-03-12T00:14:47.524Z,6.17
2023-03-12T00:17:15.405Z,6.43
2023-03-12T00:19:43.263Z,7.10
2023-03-12T00:22:11.067Z,7.30
2023-03-12T00:24:39.261Z,7.40
2023-03-12T00:27:08.191Z,7.20
2023-03-12T00:29:37.360Z,6.87
2023-03-12T00:32:05.444Z,7.30
2023-03-12T00:34:33.179Z,7.00
2023-03-12T00:37:01.046Z,7.30
2023-03-12T00:39:28.802Z,7.40
2023-03-12T00:41:56.553Z,7.07
2023-03-12T00:44:24.364Z,7.47
2023-03-12T00:46:55.387Z,6.90
2023-03-12T00:49:23.459Z,6.83
2023-03-12T00:51:51.655Z,7.53
2023-03-12T00:54:19.545Z,7.73
2023-03-12T00:56:47.729Z,8.13
2023-03-12T00:59:15.661Z,7.97
2023-03-12T01:01:43.919Z,7.93
2023-03-12T01:04:13.565Z,8.70
2023-03-12T01:06:41.600Z,8.93
2023-03-12T01:09:09.612Z,9.70
2023-03-12T01:11:38.606Z,8.83
2023-03-12T01:14:10.072Z,9.30
2023-03-12T01:16:37.906Z,9.37
2023-03-12T01:19:05.847Z,9.30
2023-03-12T01:21:35.044Z,8.60
2023-03-12T01:24:03.142Z,9.23
2023-03-12T01:26:30.998Z,9.97
2023-03-12T01:28:58.825Z,9.40
2023-03-12T01:31:26.895Z,8.70
2023-03-12T01:33:54.941Z,8.50
2023-03-12T01:36:25.795Z,8.90
2023-03-12T01:38:57.337Z,8.80
2023-03-12T01:41:26.577Z,9.27
2023-03-12T01:43:54.393Z,8.73
2023-03-12T01:46:43.196Z,8.73
2023-03-12T01:49:13.928Z,8.37
2023-03-12T01:51:44.391Z,8.43
2023-03-12T01:54:16.634Z,8.60
2023-03-12T01:56:44.813Z,8.47
2023-03-12T01:59:17.894Z,9.30
2023-03-12T02:01:46.696Z,9.27
2023-03-12T02:04:16.956Z,9.60
2023-03-12T02:06:51.236Z,9.60
2023-03-12T02:09:23.127Z,9.20
2023-03-12T02:11:51.241Z,9.97
2023-03-12T02:14:19.621Z,10.63
2023-03-12T02:16:47.852Z,11.73
2023-03-12T02:19:22.225Z,11.87
2023-03-12T02:21:50.426Z,11.70
2023-03-12T02:24:27.998Z,11.53
2023-03-12T02:26:57.524Z,12.43
2023-03-12T02:29:26.392Z,12.23
2023-03-12T02:31:57.335Z,11.60
2023-03-12T02:34:25.263Z,11.40
2023-03-12T02:36:53.524Z,11.47
2023-03-12T02:39:21.282Z,10.87
2023-03-12T02:41:54.316Z,11.80
2023-03-12T02:44:26.354Z,11.10
2023-03-12T02:46:56.415Z,10.77
2023-03-12T02:49:26.309Z,11.00
2023-03-12T02:51:54.909Z,10.47
2023-03-12T02:54:24.348Z,10.77
2023-03-12T02:56:53.248Z,11.50
2023-03-12T02:59:21.918Z,10.57
2023-03-12T03:01:55.080Z,11.00
2023-03-12T03:04:23.393Z,12.43
2023-03-12T03:06:51.290Z,10.37
2023-03-12T03:09:19.435Z,10.87
2023-03-12T03:11:47.464Z,10.80
2023-03-12T03:14:15.510Z,12.20
2023-03-12T03:16:43.304Z,10.57
2023-03-12T03:19:12.870Z,11.10
2023-03-12T03:21:40.772Z,10.63
2023-03-12T03:24:08.914Z,11.20
2023-03-12T03:26:37.058Z,12.20
2023-03-12T03:29:05.084Z,12.57
2023-03-12T03:31:33.088Z,12.07
2023-03-12T03:34:00.896Z,12.73
2023-03-12T03:36:30.141Z,12.53
2023-03-12T03:38:58.010Z,12.10
2023-03-12T03:41:26.259Z,12.10
2023-03-12T03:43:58.397Z,12.40
2023-03-12T03:46:27.077Z,12.33
2023-03-12T03:48:54.885Z,12.47
2023-03-12T03:51:22.802Z,12.33
2023-03-12T03:53:51.999Z,11.27
2023-03-12T03:56:19.967Z,12.70
2023-03-12T03:58:47.852Z,12.67
2023-03-12T04:01:16.351Z,13.43
2023-03-12T04:03:44.264Z,11.70
2023-03-12T04:06:12.924Z,11.97
2023-03-12T04:08:40.797Z,12.00
2023-03-12T04:11:11.946Z,11.93
2023-03-12T04:13:39.921Z,12.23
2023-03-12T04:16:09.024Z,11.30
2023-03-12T04:18:37.293Z,11.37
2023-03-12T04:21:06.036Z,11.03
2023-03-12T04:23:33.938Z,11.13
2023-03-12T04:26:02.024Z,9.80
2023-03-12T04:28:31.412Z,9.43
2023-03-12T04:31:01.812Z,8.57
2023-03-12T04:33:31.400Z,8.97
2023-03-12T04:36:00.180Z,7.97
2023-03-12T04:38:29.714Z,8.43
2023-03-12T04:41:01.382Z,8.40
2023-03-12T04:43:29.834Z,8.17
2023-03-12T04:45:59.435Z,7.07
2023-03-12T04:48:27.843Z,7.50
2023-03-12T04:50:55.726Z,7.00
2023-03-12T04:53:24.837Z,7.47
2023-03-12T04:55:53.358Z,7.53
2023-03-12T04:58:21.993Z,7.10
2023-03-12T05:00:51.733Z,7.27
2023-03-12T05:03:21.038Z,7.07
2023-03-12T05:05:48.964Z,7.20
2023-03-12T05:08:16.794Z,7.53
2023-03-12T05:10:45.855Z,6.93
2023-03-12T05:13:15.295Z,7.13
2023-03-12T05:15:43.380Z,8.07
2023-03-12T05:18:11.292Z,7.57
2023-03-12T05:20:41.502Z,7.50
2023-03-12T05:23:09.498Z,7.03
2023-03-12T05:25:40.562Z,6.93
2023-03-12T05:28:08.422Z,7.10
2023-03-12T05:30:36.362Z,6.60
2023-03-12T05:33:04.225Z,6.53
2023-03-12T05:35:32.245Z,7.30
2023-03-12T05:38:01.566Z,6.87
2023-03-12T05:40:29.422Z,7.27
2023-03-12T05:42:57.246Z,6.93
2023-03-12T05:45:25.058Z,6.77
2023-03-12T05:47:52.803Z,6.63
2023-03-12T05:50:20.723Z,6.97
2023-03-12T05:52:48.633Z,7.23
2023-03-12T05:55:17.882Z,6.60
2023-03-12T05:57:45.712Z,7.30
2023-03-12T06:00:15.504Z,6.50
2023-03-12T06:02:43.753Z,7.30
2023-03-12T06:05:12.259Z,6.67
2023-03-12T06:07:40.407Z,6.60
2023-03-12T06:10:09.390Z,7.13
2023-03-12T06:12:38.998Z,7.30
2023-03-12T06:15:07.535Z,7.03
2023-03-12T06:17:35.239Z,6.13
2023-03-12T06:20:03.623Z,5.40
2023-03-12T06:22:31.366Z,5.20
2023-03-12T06:24:59.682Z,4.67
2023-03-12T06:27:27.466Z,4.80
2023-03-12T06:29:56.821Z,4.67
2023-03-12T06:32:24.671Z,4.20
2023-03-12T06:34:52.596Z,4.30
2023-03-12T06:37:20.384Z,4.17
2023-03-12T06:39:48.159Z,4.13
2023-03-12T06:42:17.705Z,3.73
2023-03-12T06:44:45.442Z,3.60
2023-03-12T06:47:17.445Z,3.90
2023-03-12T06:49:45.676Z,3.53
2023-03-12T06:52:13.621Z,3.33
2023-03-12T06:54:41.471Z,3.40
2023-03-12T06:57:09.269Z,3.33
2023-03-12T06:59:37.080Z,3.63
2023-03-12T07:02:05.087Z,3.42
2023-03-12T07:04:34.281Z,3.25
2023-03-12T07:07:01.977Z,3.50
2023-03-12T07:09:29.763Z,3.47
2023-03-12T07:11:57.892Z,3.25
2023-03-12T07:14:25.878Z,3.05
2023-03-12T07:16:54.009Z,3.20
2023-03-12T07:19:21.756Z,2.83
2023-03-12T07:21:50.986Z,2.90
2023-03-12T07:24:18.731Z,2.90
2023-03-12T07:26:46.692Z,3.35
2023-03-12T07:29:14.625Z,3.00
2023-03-12T07:31:42.400Z,2.70
2023-03-12T07:34:10.255Z,2.72
2023-03-12T07:36:38.644Z,2.70
2023-03-12T07:39:08.888Z,2.80
2023-03-12T07:41:39.027Z,2.60
2023-03-12T07:44:07.100Z,2.45
2023-03-12T07:46:34.878Z,2.30
2023-03-12T07:49:02.750Z,2.20
2023-03-12T07:51:30.540Z,2.08
2023-03-12T07:53:58.275Z,2.20
2023-03-12T07:56:27.576Z,2.20
2023-03-12T07:58:55.846Z,1.90
2023-03-12T08:01:25.411Z,2.00
2023-03-12T08:03:53.225Z,2.10
2023-03-12T08:06:21.814Z,2.28
2023-03-12T08:08:49.652Z,1.85
2023-03-12T08:11:18.291Z,1.95
2023-03-12T08:13:47.439Z,2.10
2023-03-12T08:16:15.740Z,1.98
2023-03-12T08:18:44.200Z,2.25
2023-03-12T08:21:12.726Z,1.92
2023-03-12T08:23:41.799Z,2.95
2023-03-12T08:26:09.604Z,2.60
2023-03-12T08:28:37.460Z,3.45
2023-03-12T08:31:07.142Z,2.65
2023-03-12T08:33:34.904Z,2.28
2023-03-12T08:36:02.688Z,2.70
2023-03-12T08:38:30.467Z,2.33
2023-03-12T08:40:59.274Z,2.90
2023-03-12T08:43:29.449Z,2.75
2023-03-12T08:45:58.273Z,2.33
2023-03-12T08:48:27.847Z,3.83
2023-03-12T08:50:57.421Z,2.08
2023-03-12T08:53:25.583Z,2.00
2023-03-12T08:55:54.332Z,2.00
2023-03-12T08:58:22.441Z,3.00
2023-03-12T09:00:50.205Z,2.50
2023-03-12T09:03:18.119Z,2.10
2023-03-12T09:05:47.255Z,1.98
2023-03-12T09:08:15.550Z,2.60
2023-03-12T09:10:49.527Z,1.95
2023-03-12T09:13:17.313Z,1.55
2023-03-12T09:15:45.127Z,1.42
2023-03-12T09:18:13.120Z,1.77
2023-03-12T09:20:42.950Z,1.50
2023-03-12T09:23:12.083Z,1.60
2023-03-12T09:25:39.824Z,1.70
2023-03-12T09:28:07.995Z,1.30
2023-03-12T09:30:35.793Z,1.42
2023-03-12T09:33:03.610Z,1.50
2023-03-12T09:35:31.594Z,1.38
2023-03-12T09:37:59.751Z,1.30
2023-03-12T09:40:32.032Z,1.30
2023-03-12T09:43:03.411Z,1.38
2023-03-12T09:45:34.062Z,1.40
2023-03-12T09:48:04.583Z,1.50
2023-03-12T09:50:34.579Z,1.30
2023-03-12T09:53:04.876Z,1.52
2023-03-12T09:55:39.134Z,1.30
2023-03-12T09:58:13.521Z,1.10
2023-03-12T10:00:41.395Z,1.00
2023-03-12T10:03:28.012Z,0.85
2023-03-12T10:06:06.896Z,0.95
2023-03-12T10:08:47.508Z,0.90
2023-03-12T10:11:29.544Z,1.10
2023-03-12T10:14:23.737Z,1.00
2023-03-12T10:17:04.341Z,1.10
2023-03-12T10:19:42.630Z,1.13
2023-03-12T10:22:20.773Z,1.10
2023-03-12T10:24:57.749Z,0.80
2023-03-12T10:27:30.603Z,0.90
2023-03-12T10:29:59.622Z,0.95
2023-03-12T10:32:36.472Z,1.00
2023-03-12T10:35:14.359Z,0.77
2023-03-12T10:37:46.392Z,0.90
2023-03-12T10:40:16.508Z,1.20
2023-03-12T10:42:45.697Z,0.98
2023-03-12T10:45:28.519Z,1.00
2023-03-12T10:47:59.969Z,0.90
2023-03-12T10:50:29.817Z,0.90
2023-03-12T10:53:13.777Z,0.80
2023-03-12T10:55:41.671Z,0.90
2023-03-12T10:58:23.813Z,1.00
2023-03-12T11:00:57.962Z,0.98
2023-03-12T11:03:27.211Z,0.80
2023-03-12T11:05:56.645Z,0.90
2023-03-12T11:08:27.284Z,0.85
2023-03-12T11:10:56.335Z,1.10
2023-03-12T11:13:32.395Z,0.70
2023-03-12T11:16:01.746Z,0.80
2023-03-12T11:18:33.164Z,0.70
2023-03-12T11:21:18.824Z,0.80
2023-03-12T11:24:08.229Z,0.80
2023-03-12T11:26:41.007Z,0.90
2023-03-12T11:29:23.878Z,0.60
2023-03-12T11:32:04.786Z,0.70
2023-03-12T11:34:35.897Z,0.70
2023-03-12T11:37:11.554Z,0.60
2023-03-12T11:39:52.950Z,0.70
2023-03-12T11:42:34.479Z,0.73
2023-03-12T11:45:10.014Z,0.80
2023-03-12T11:47:52.375Z,0.80
2023-03-12T11:50:28.896Z,0.90
2023-03-12T11:53:13.186Z,0.90
2023-03-12T11:55:52.731Z,1.17
2023-03-12T11:58:46.166Z,0.90
2023-03-12T12:01:24.468Z,3.78
2023-03-12T12:04:29.529Z,1.90
2023-03-12T12:07:10.005Z,1.08
2023-03-12T12:09:47.022Z,0.70
2023-03-12T12:12:26.082Z,0.80
2023-03-12T12:15:16.477Z,0.70
2023-03-12T12:17:57.868Z,0.88
2023-03-12T12:20:35.213Z,0.80
2023-03-12T12:23:14.755Z,0.82
2023-03-12T12:25:56.774Z,0.80
2023-03-12T12:28:55.149Z,0.70
2023-03-12T12:31:31.621Z,0.80
2023-03-12T12:34:18.654Z,0.90
2023-03-12T12:36:51.939Z,0.90
2023-03-12T12:39:30.422Z,1.00
2023-03-12T12:42:03.537Z,0.88
2023-03-12T12:44:36.811Z,0.90
2023-03-12T12:47:08.109Z,1.15
2023-03-12T12:49:44.749Z,1.17
2023-03-12T12:52:17.968Z,1.10
2023-03-12T12:54:55.338Z,1.10
2023-03-12T12:57:29.174Z,0.90
2023-03-12T13:00:16.557Z,0.98
2023-03-12T13:02:47.963Z,0.90
2023-03-12T13:05:23.556Z,0.90
2023-03-12T13:07:51.353Z,0.80
2023-03-12T13:10:48.937Z,0.80
2023-03-12T13:13:30.571Z,0.70
2023-03-12T13:16:22.648Z,0.65
2023-03-12T13:19:01.250Z,0.82
2023-03-12T13:21:40.541Z,0.82
2023-03-12T13:24:20.460Z,0.70
2023-03-12T13:26:56.965Z,0.73
2023-03-12T13:29:39.776Z,0.70
2023-03-12T13:32:11.434Z,0.60
2023-03-12T13:34:48.123Z,0.70
2023-03-12T13:37:45.160Z,0.73
2023-03-12T13:40:52.854Z,0.80
2023-03-12T13:43:51.982Z,0.60
2023-03-12T13:46:39.255Z,0.80
2023-03-12T13:49:13.510Z,0.50
2023-03-12T13:51:47.258Z,1.00
2023-03-12T13:54:20.174Z,0.90
2023-03-12T13:56:58.476Z,0.70
2023-03-12T13:59:28.692Z,0.60
2023-03-12T14:02:02.093Z,0.70
2023-03-12T14:04:37.568Z,0.70
2023-03-12T14:07:19.829Z,0.60
2023-03-12T14:09:59.291Z,0.90
2023-03-12T14:12:34.152Z,0.80
2023-03-12T14:15:12.268Z,0.70
2023-03-12T14:17:41.726Z,0.70
2023-03-12T14:20:15.379Z,0.60
2023-03-12T14:22:49.746Z,0.80
2023-03-12T14:25:30.000Z,0.60
2023-03-12T14:27:58.281Z,0.70
2023-03-12T14:30:34.451Z,0.70
2023-03-12T14:33:04.444Z,0.70
2023-03-12T14:35:38.278Z,0.65
2023-03-12T14:38:08.399Z,0.60
2023-03-12T14:40:43.821Z,0.80
2023-03-12T14:43:27.098Z,0.90
2023-03-12T14:45:58.959Z,0.70
2023-03-12T14:48:30.868Z,0.95
2023-03-12T14:50:59.821Z,0.80
2023-03-12T14:53:29.479Z,0.80
2023-03-12T14:56:03.709Z,0.90
2023-03-12T14:58:32.710Z,0.68
2023-03-12T15:01:03.141Z,0.82
2023-03-12T15:03:35.189Z,0.90
2023-03-12T15:06:02.969Z,0.82
2023-03-12T15:08:35.148Z,0.90
2023-03-12T15:11:04.310Z,0.98
2023-03-12T15:13:32.273Z,1.08
2023-03-12T15:16:00.387Z,1.10
2023-03-12T15:18:30.312Z,1.20
2023-03-12T15:21:00.048Z,1.40
2023-03-12T15:23:30.986Z,1.17
2023-03-12T15:26:26.951Z,1.40
2023-03-12T15:28:58.933Z,1.50
2023-03-12T15:31:27.050Z,1.50
2023-03-12T15:34:02.815Z,1.60
2023-03-12T15:36:32.086Z,1.80
2023-03-12T15:39:05.546Z,1.45
2023-03-12T15:41:43.944Z,1.45
2023-03-12T15:44:20.312Z,1.50
2023-03-12T15:46:49.644Z,2.08
2023-03-12T15:49:24.803Z,1.50
2023-03-12T15:52:00.496Z,1.77
2023-03-12T15:54:30.159Z,1.90
2023-03-12T16:02:51.267Z,2.03
2023-03-12T16:05:20.024Z,1.88
2023-03-12T16:07:48.040Z,2.20
2023-03-12T16:10:18.942Z,1.90
2023-03-12T16:12:47.963Z,1.70
2023-03-12T16:15:18.081Z,1.88
2023-03-12T16:17:45.914Z,2.10
2023-03-12T16:20:17.674Z,2.20
2023-03-12T16:22:45.643Z,2.00
2023-03-12T16:25:14.132Z,2.10
2023-03-12T16:27:49.399Z,2.10
2023-03-12T16:30:20.004Z,2.08
2023-03-12T16:32:47.792Z,1.90
2023-03-12T16:35:19.728Z,2.00
2023-03-12T16:37:48.109Z,2.20
2023-03-12T16:40:30.836Z,2.40
2023-03-12T16:43:02.777Z,2.70
2023-03-12T16:45:31.887Z,2.65
2023-03-12T16:48:01.680Z,2.30
2023-03-12T16:50:31.672Z,2.50
2023-03-12T16:52:59.877Z,2.30
2023-03-12T16:55:29.598Z,2.30
2023-03-12T16:58:00.239Z,2.35
2023-03-12T17:00:30.433Z,2.97
2023-03-12T17:02:59.119Z,2.72
2023-03-12T17:05:28.148Z,2.50
2023-03-12T17:07:58.375Z,2.80
2023-03-12T17:10:27.413Z,2.80
2023-03-12T17:12:56.807Z,2.45
2023-03-12T17:15:26.986Z,2.13
2023-03-12T17:17:55.792Z,2.60
2023-03-12T17:20:25.271Z,2.33
2023-03-12T17:22:53.812Z,2.13
2023-03-12T17:25:26.009Z,2.15
2023-03-12T17:27:53.958Z,2.22
2023-03-12T17:30:22.101Z,2.28
2023-03-12T17:32:51.274Z,2.20
2023-03-12T17:35:20.566Z,2.45
2023-03-12T17:37:48.937Z,2.50
2023-03-12T17:40:17.190Z,2.47
2023-03-12T17:42:46.334Z,2.50
2023-03-12T17:45:14.091Z,2.72
2023-03-12T17:47:41.864Z,2.90
2023-03-12T17:50:11.134Z,2.60
2023-03-12T17:52:39.062Z,2.85
2023-03-12T17:55:11.029Z,2.80
2023-03-12T17:57:39.322Z,2.65
2023-03-12T18:00:12.711Z,2.63
2023-03-12T18:02:42.135Z,2.30
2023-03-12T18:05:12.063Z,2.55
2023-03-12T18:07:41.387Z,2.40
2023-03-12T18:10:11.883Z,2.30
2023-03-12T18:12:40.260Z,2.40
2023-03-12T18:15:12.506Z,2.83
2023-03-12T18:17:40.668Z,3.13
2023-03-12T18:20:13.390Z,3.05
2023-03-12T18:22:41.687Z,2.50
2023-03-12T18:25:11.000Z,2.53
2023-03-12T18:27:38.763Z,2.55
2023-03-12T18:30:11.487Z,2.50
2023-03-12T18:32:41.360Z,2.80
2023-03-12T18:35:10.020Z,2.45
2023-03-12T18:37:37.794Z,2.42
2023-03-12T18:40:06.927Z,3.08
2023-03-12T18:42:34.867Z,2.53
2023-03-12T18:45:02.731Z,2.78
2023-03-12T18:47:31.337Z,2.90
2023-03-12T18:50:00.431Z,2.53
2023-03-12T18:52:28.156Z,2.50
2023-03-12T18:54:55.956Z,2.40
2023-03-12T18:57:23.756Z,2.70
2023-03-12T18:59:51.654Z,2.58
2023-03-12T19:02:19.461Z,2.35
2023-03-12T19:04:47.250Z,2.40
2023-03-12T19:07:17.927Z,2.28
2023-03-12T19:09:45.760Z,2.47
2023-03-12T19:12:13.896Z,2.80
2023-03-12T19:14:41.822Z,2.50
2023-03-12T19:17:09.816Z,2.40
2023-03-12T19:19:37.729Z,2.38
2023-03-12T19:22:05.643Z,3.08
2023-03-12T19:24:34.761Z,3.20
2023-03-12T19:27:02.628Z,3.60
2023-03-12T19:29:30.350Z,3.05
2023-03-12T19:31:58.275Z,3.92
2023-03-12T19:34:26.215Z,2.90
2023-03-12T19:36:54.001Z,3.58
2023-03-12T19:39:21.998Z,2.70
2023-03-12T19:41:51.448Z,3.47
2023-03-12T19:44:19.187Z,2.60
2023-03-12T19:46:47.057Z,2.83
2023-03-12T19:49:14.777Z,3.15
2023-03-12T19:51:42.846Z,2.92
2023-03-12T19:54:10.679Z,2.67
2023-03-12T19:56:38.392Z,2.60
2023-03-12T19:59:07.700Z,2.83
2023-03-12T20:01:35.518Z,2.60
2023-03-12T20:04:07.858Z,2.33
2023-03-12T20:06:35.764Z,2.90
2023-03-12T20:09:04.731Z,2.83
2023-03-12T20:11:33.560Z,3.05
2023-03-12T20:14:01.420Z,2.83
2023-03-12T20:16:30.890Z,2.60
2023-03-12T20:18:58.726Z,3.08
2023-03-12T20:21:27.983Z,2.72
2023-03-12T20:23:56.891Z,2.50
2023-03-12T20:26:24.975Z,2.40
2023-03-12T20:28:52.723Z,2.72
2023-03-12T20:31:20.611Z,2.40
2023-03-12T20:33:49.711Z,2.60
2023-03-12T20:36:17.530Z,2.40
2023-03-12T20:38:45.404Z,2.38
2023-03-12T20:41:14.481Z,2.90
2023-03-12T20:43:42.566Z,2.88
2023-03-12T20:46:10.823Z,2.60
2023-03-12T20:48:38.810Z,2.80
2023-03-12T20:51:08.133Z,2.60
2023-03-12T20:53:35.933Z,2.70
2023-03-12T20:56:05.908Z,2.70
2023-03-12T20:58:34.781Z,2.40
2023-03-12T21:01:03.142Z,2.60
2023-03-12T21:03:30.948Z,2.67
2023-03-12T21:06:00.212Z,3.13
2023-03-12T21:08:30.171Z,3.05
2023-03-12T21:10:57.952Z,2.70
2023-03-12T21:13:26.702Z,3.00
2023-03-12T21:15:54.520Z,2.88
2023-03-12T21:18:22.286Z,2.80
2023-03-12T21:20:50.294Z,2.80
2023-03-12T21:23:18.323Z,3.05
2023-03-12T21:25:47.711Z,2.80
2023-03-12T21:28:16.185Z,2.63
2023-03-12T21:30:44.034Z,2.67
2023-03-12T21:33:11.960Z,2.45
2023-03-12T21:35:44.074Z,2.67
2023-03-12T21:38:12.019Z,2.65
2023-03-12T21:40:39.856Z,2.78
2023-03-12T21:43:09.022Z,2.60
2023-03-12T21:45:36.729Z,2.40
2023-03-12T21:48:04.652Z,2.50
2023-03-12T21:50:32.885Z,2.53
2023-03-12T21:53:01.511Z,2.80
2023-03-12T21:55:30.172Z,2.67
2023-03-12T21:57:58.113Z,2.63
2023-03-12T22:00:27.171Z,2.70
2023-03-12T22:02:54.998Z,2.87
2023-03-12T22:05:22.960Z,2.90
2023-03-12T22:07:50.719Z,3.27
2023-03-12T22:10:18.603Z,2.83
2023-03-12T22:12:46.558Z,3.00
2023-03-12T22:15:14.334Z,3.03
2023-03-12T22:17:43.421Z,2.53
2023-03-12T22:20:12.328Z,3.10
2023-03-12T22:22:40.299Z,2.77
2023-03-12T22:25:08.744Z,3.10
2023-03-12T22:27:36.482Z,3.20
2023-03-12T22:30:04.816Z,2.80
2023-03-12T22:32:33.197Z,3.07
2023-03-12T22:35:03.006Z,3.40
2023-03-12T22:37:30.828Z,3.20
2023-03-12T22:40:01.531Z,2.57
2023-03-12T22:42:29.365Z,2.80
2023-03-12T22:44:57.245Z,2.90
2023-03-12T22:47:25.254Z,2.90
2023-03-12T22:49:53.155Z,2.70
2023-03-12T22:52:22.282Z,2.53
2023-03-12T22:54:51.251Z,2.60
2023-03-12T22:57:19.155Z,2.73
2023-03-12T22:59:47.898Z,2.80
2023-03-12T23:02:15.714Z,2.77
2023-03-12T23:04:45.530Z,2.65
2023-03-12T23:07:15.907Z,2.90
2023-03-12T23:09:46.308Z,2.57
2023-03-12T23:12:14.273Z,2.47
2023-03-12T23:14:42.062Z,3.00
2023-03-12T23:17:10.052Z,2.80
2023-03-12T23:19:37.772Z,2.80
2023-03-12T23:22:05.902Z,2.80
2023-03-12T23:24:34.133Z,2.77
2023-03-12T23:27:04.020Z,2.80
2023-03-12T23:29:31.912Z,2.80
2023-03-12T23:31:59.907Z,2.67
2023-03-12T23:34:28.360Z,2.97
2023-03-12T23:36:56.339Z,3.20
2023-03-12T23:39:24.087Z,3.10
2023-03-12T23:41:51.820Z,3.00
2023-03-12T23:44:20.937Z,2.77
2023-03-12T23:46:48.705Z,2.90
2023-03-12T23:49:16.493Z,3.10
2023-03-12T23:51:44.239Z,3.10
2023-03-12T23:54:12.020Z,2.90
2023-03-12T23:56:41.277Z,2.90
2023-03-12T23:59:10.892Z,3.30
